EDLPEDLW

Guest
Details From EDLP - Paderborn Lippstadt
To EDLW - Dortmund-Wickede
Flight Number -
Tags generated
Created
Modified
Stats Distance 38 nm / 71 km
Max Altitude 6,100 ft / 1,859 m
Waypoints 3
Social Downloads 0
Likes 0
Share VATSIM

Download

Looking for another format? Having issues loading an existing format? Contact us
Advertisement - Login to hide

Notes

Basic altitude profile: - Ascent Rate: 2500ft/min - Ascent Speed: 250kts - Cruise Altitude: 500000ft - Cruise Speed: 250kts - Descent Rate: 1500ft/min - Descent Speed: 230kts

Route

EDLP TINSA EDLW

ID Type Via Altitude Latitude Longitude Leg Dist Tot Dist Heading (true) Name
O EDLP APT - 0 ft / 0 m 51.61417˚ 8.61634˚ - 0 nm - Paderborn Lippstadt
TINSA FIX - 6,100 ft / 1,859 m 51.51528˚ 8.07417˚ 21 nm 21 nm 254° / 253° -
O EDLW APT - 0 ft / 0 m 51.51911˚ 7.61445˚ 17 nm 38 nm 271° / 271° Dortmund-Wickede

Altitude Profile

Advertisement - Login to hide

EDLP

Details ICAO EDLP (PAD)
Name Paderborn Lippstadt
Region Germany - Civil
Timezone Europe/Berlin (UTC+1.0)
Stats Elevation 699 ft / 213 m (AMSL)
Location 51.614166° 8.616336°
Runways 1
Magnetic Variation 2.358° E

METAR

EDLP 180320Z 14010KT 4000 -SN BR BKN015 01/M00 Q1017 RESN

Decode

TAF

TAF TAF EDLP 172300Z 1800/1824 17010KT 9999 BKN025 BECMG 1802/1805 4000 -SN TEMPO 1802/1808 1200 SN BKN005 BECMG 1809/1812 VRB03KT 9999 TEMPO 1812/1820 BKN012 BECMG 1820/1824 BKN004

Decode

Departure Runways

ID Width Length Bearing (true) Bearing (mag) Surface Threshold Offset Overrun Length
06 148 ft / 45 m 7,136 ft / 2,175 m 57.28° 54.92° Asphalt 0 ft / 0 m 1,066 ft / 325 m
24 148 ft / 45 m 7,136 ft / 2,175 m 237.30° 234.94° Asphalt 0 ft / 0 m 397 ft / 121 m

EDLW

Details ICAO EDLW (DTM)
Name Dortmund-Wickede
Region Germany - Civil
Timezone Europe/Berlin (UTC+1.0)
Stats Elevation 425 ft / 130 m (AMSL)
Location 51.519107° 7.614447°
Runways 1
Magnetic Variation 2.059° E

METAR

EDLW 180320Z AUTO 20010KT 8000 // FEW010/// OVC024/// 01/M01 Q1016

Decode

TAF

TAF TAF EDLW 172150Z 1721/1818 CNL

Decode

Destination Runways

ID Width Length Bearing (true) Bearing (mag) Surface Threshold Offset Overrun Length
06 148 ft / 45 m 6,546 ft / 1,995 m 60.50° 58.44° Asphalt 984 ft / 300 m 197 ft / 60 m
24 148 ft / 45 m 6,546 ft / 1,995 m 240.52° 238.46° Asphalt 984 ft / 300 m 197 ft / 60 m

Approach Navaids

Runway Type Ident Frequency Range Bearing (true) Bearing (mag) Slope Elevation
06 Localiser IDWE 109.15 MHz 18 nm / 33 km 60.52° 58.46° - 425 ft / 130 m (AMSL)
06 Glidescope IDWE 109.15 MHz 10 nm / 19 km 60.51° 58.45° 3.00° 425 ft / 130 m (AMSL)
24 Localiser IDWW 110.30 MHz 18 nm / 33 km 240.49° 238.43° - 425 ft / 130 m (AMSL)
24 Glidescope IDWW 110.30 MHz 10 nm / 19 km 240.51° 238.45° 3.00° 425 ft / 130 m (AMSL)

Popular Alternatives